Time;durP1;ratioP1;P1;durP2;ratioP2;P2;SDS_P1;SDS_P2;PMS_P1;PMS_P2;Temp;Humidity;BMP_temperature;BMP_pressure;BME280_temperature;BME280_humidity;BME280_pressure;Samples;Min_cycle;Max_cycle;Signal;HPM_P1;HPM_P2
2022/05/02 00:02:11;;;;;;;16.77;8.85;;;;;;;9.97;53.21;101879.34;4808027;29;123468;-73
2022/05/02 00:04:37;;;;;;;25.13;11.57;;;;;;;9.93;53.02;101881.34;4781454;29;119577;-72
2022/05/02 00:07:03;;;;;;;21.95;11.05;;;;;;;9.88;52.41;101873.59;4796211;29;123010;-72
2022/05/02 00:09:28;;;;;;;22.33;10.25;;;;;;;9.82;53.05;101876.81;4792861;29;121902;-72
2022/05/02 00:11:54;;;;;;;15.38;7.68;;;;;;;9.74;53.37;101867.16;4762982;29;120251;-72
2022/05/02 00:14:19;;;;;;;15.43;6.63;;;;;;;9.71;53.70;101864.47;4805960;29;119724;-72
2022/05/02 00:16:45;;;;;;;14.07;7.10;;;;;;;9.74;54.28;101864.41;4800728;29;122951;-72
2022/05/02 00:19:11;;;;;;;16.08;8.27;;;;;;;9.69;53.80;101867.59;4786589;29;122405;-72
2022/05/02 00:21:37;;;;;;;14.18;7.38;;;;;;;9.64;53.99;101857.13;4789599;29;122882;-72
2022/05/02 00:24:02;;;;;;;13.13;6.40;;;;;;;9.63;54.49;101858.31;4799011;29;120037;-72
2022/05/02 00:26:28;;;;;;;12.00;5.13;;;;;;;9.68;53.74;101879.75;4779401;29;121910;-73
2022/05/02 00:28:53;;;;;;;12.35;6.20;;;;;;;9.68;55.05;101871.53;4778515;29;122621;-72
2022/05/02 00:31:19;;;;;;;10.90;5.60;;;;;;;9.67;54.10;101869.22;4795241;29;119711;-72
2022/05/02 00:33:44;;;;;;;11.00;5.57;;;;;;;9.57;53.40;101861.94;4811983;29;119913;-72
2022/05/02 00:36:10;;;;;;;12.00;5.38;;;;;;;9.55;54.17;101867.84;4796619;29;122966;-72
2022/05/02 00:38:36;;;;;;;14.32;5.68;;;;;;;9.45;54.29;101852.31;4802085;29;119820;-73
2022/05/02 00:41:02;;;;;;;10.43;5.07;;;;;;;9.43;54.29;101857.44;4797121;29;123626;-72
2022/05/02 00:43:28;;;;;;;9.52;5.60;;;;;;;9.46;54.86;101859.34;4790527;29;119787;-72
2022/05/02 00:45:54;;;;;;;8.27;4.70;;;;;;;9.39;53.62;101865.72;4779769;29;121628;-72
2022/05/02 00:48:21;;;;;;;7.95;4.68;;;;;;;9.37;54.05;101859.88;4781814;29;122744;-72
2022/05/02 00:50:47;;;;;;;8.23;4.35;;;;;;;9.35;54.32;101864.22;4799475;29;119761;-73
2022/05/02 00:53:15;;;;;;;7.60;4.22;;;;;;;9.32;54.27;101865.03;4794357;29;121530;-72
2022/05/02 00:55:42;;;;;;;7.90;3.75;;;;;;;9.30;54.12;101861.94;4818427;29;119835;-72
2022/05/02 00:58:07;;;;;;;4.75;3.42;;;;;;;9.18;54.40;101855.06;4788346;29;120132;-72
2022/05/02 01:00:36;;;;;;;5.47;3.03;;;;;;;9.15;54.26;101853.16;4805364;29;119894;-72
2022/05/02 01:03:03;;;;;;;4.90;3.38;;;;;;;9.11;53.72;101861.41;4782694;29;119700;-72
2022/05/02 01:05:29;;;;;;;5.28;3.72;;;;;;;9.11;54.72;101861.41;4815223;29;119304;-72
2022/05/02 01:07:55;;;;;;;8.07;3.42;;;;;;;9.08;54.76;101856.75;4813827;29;119721;-72
2022/05/02 01:10:21;;;;;;;5.18;3.58;;;;;;;9.06;55.49;101859.13;4799512;29;120886;-72
2022/05/02 01:12:48;;;;;;;4.38;3.33;;;;;;;9.07;55.69;101860.69;4798349;29;121600;-72
2022/05/02 01:15:16;;;;;;;6.63;3.20;;;;;;;9.11;54.93;101868.84;4798877;29;120093;-72
2022/05/02 01:17:43;;;;;;;5.90;3.35;;;;;;;9.09;54.77;101861.03;4796794;29;119824;-72
2022/05/02 01:20:11;;;;;;;7.07;3.38;;;;;;;9.07;54.79;101866.16;4806880;29;119798;-72
2022/05/02 01:22:36;;;;;;;5.13;3.38;;;;;;;8.94;54.15;101854.19;4805257;29;119896;-72
2022/05/02 01:25:02;;;;;;;4.45;3.10;;;;;;;8.83;54.48;101840.66;4796216;29;122248;-72
2022/05/02 01:27:27;;;;;;;5.32;3.25;;;;;;;8.91;54.47;101860.50;4796390;29;119731;-72
2022/05/02 01:29:53;;;;;;;3.88;3.33;;;;;;;8.89;55.43;101860.13;4797679;29;120703;-72
2022/05/02 01:32:18;;;;;;;5.10;3.20;;;;;;;8.88;54.93;101858.56;4796612;29;119617;-72
2022/05/02 01:34:44;;;;;;;6.35;3.63;;;;;;;8.83;54.87;101856.31;4795104;29;121907;-73
2022/05/02 01:37:13;;;;;;;4.68;3.53;;;;;;;8.84;54.81;101857.84;4799255;29;119819;-73
2022/05/02 01:39:39;;;;;;;5.93;3.55;;;;;;;8.81;55.13;101858.66;4768022;29;121912;-73
2022/05/02 01:42:07;;;;;;;4.75;3.47;;;;;;;8.77;54.06;101860.69;4770859;29;123201;-73
2022/05/02 01:44:33;;;;;;;7.65;4.00;;;;;;;8.73;54.78;101857.97;4800087;29;120093;-73
2022/05/02 01:46:59;;;;;;;6.65;3.90;;;;;;;8.59;54.87;101844.47;4795577;29;119896;-73
2022/05/02 01:49:25;;;;;;;5.75;3.60;;;;;;;8.64;54.79;101849.47;4794858;29;119401;-73
2022/05/02 01:51:51;;;;;;;6.93;3.80;;;;;;;8.68;55.58;101855.69;4795485;29;119678;-73
2022/05/02 01:54:17;;;;;;;5.25;4.00;;;;;;;8.68;54.46;101854.91;4783908;29;122900;-73
2022/05/02 01:56:44;;;;;;;7.63;4.32;;;;;;;8.64;55.18;101848.69;4795376;29;119453;-72
2022/05/02 01:59:10;;;;;;;7.47;4.35;;;;;;;8.64;56.21;101860.41;4783180;29;122013;-72
2022/05/02 02:01:35;;;;;;;5.32;3.83;;;;;;;8.56;55.24;101846.06;4800665;29;120108;-73
2022/05/02 02:05:48;;;;;;;8.30;4.05;;;;;;;8.58;55.37;101854.63;4801782;29;119707;-73
2022/05/02 02:06:49;;;;;;;10.43;4.30;;;;;;;8.47;55.16;101844.97;4782286;29;122781;-72
2022/05/02 02:09:15;;;;;;;7.82;4.50;;;;;;;8.54;55.95;101855.84;4799208;29;121172;-72
2022/05/02 02:11:40;;;;;;;8.55;4.20;;;;;;;8.47;55.37;101851.22;4797804;29;121746;-72
2022/05/02 02:14:06;;;;;;;5.80;4.10;;;;;;;8.44;54.86;101849.31;4781956;29;122597;-72
2022/05/02 02:16:31;;;;;;;6.60;4.28;;;;;;;8.44;54.76;101857.50;4798093;29;119931;-73
2022/05/02 02:18:57;;;;;;;6.90;4.70;;;;;;;8.40;54.99;101851.31;4787109;29;121661;-72
2022/05/02 02:21:22;;;;;;;6.03;4.10;;;;;;;8.26;54.55;101840.47;4800889;29;119878;-72
2022/05/02 02:23:48;;;;;;;9.40;4.22;;;;;;;8.32;55.39;101855.28;4814214;29;120159;-72
2022/05/02 02:26:14;;;;;;;7.65;4.00;;;;;;;8.32;55.30;101855.28;4802843;29;119271;-73
2022/05/02 02:28:39;;;;;;;6.45;4.05;;;;;;;8.32;55.21;101852.53;4782788;29;119471;-73
2022/05/02 02:31:05;;;;;;;8.93;4.60;;;;;;;8.27;55.90;101848.25;4789575;29;120944;-73
2022/05/02 02:33:31;;;;;;;10.30;4.88;;;;;;;8.29;56.33;101851.41;4797281;29;119751;-72
2022/05/02 02:35:56;;;;;;;8.95;4.68;;;;;;;8.32;56.04;101852.53;4782244;29;119450;-73
2022/05/02 02:38:22;;;;;;;6.90;4.72;;;;;;;8.25;55.61;101845.16;4795878;29;121728;-72
2022/05/02 02:40:48;;;;;;;6.75;4.50;;;;;;;8.25;56.13;101836.97;4781050;29;122617;-73
2022/05/02 02:43:14;;;;;;;7.38;4.40;;;;;;;8.25;55.40;101838.91;4796358;29;119508;-72
2022/05/02 02:45:39;;;;;;;6.07;4.57;;;;;;;8.21;55.14;101827.25;4797265;29;119563;-73
2022/05/02 02:48:06;;;;;;;7.90;5.00;;;;;;;8.22;55.90;101840.50;4798575;29;120652;-72
2022/05/02 02:50:31;;;;;;;7.95;5.05;;;;;;;8.11;55.99;101828.13;4795460;29;119694;-73
2022/05/02 02:52:57;;;;;;;9.95;5.53;;;;;;;8.18;56.38;101836.25;4777428;29;122050;-73
2022/05/02 02:55:22;;;;;;;7.95;5.13;;;;;;;8.20;55.81;101842.09;4787271;29;119431;-73
2022/05/02 02:57:48;;;;;;;9.70;4.65;;;;;;;8.15;55.14;101834.34;4802682;29;120112;-73
2022/05/02 03:00:14;;;;;;;9.20;4.72;;;;;;;8.14;55.21;101843.72;4797467;29;119792;-73
2022/05/02 03:02:41;;;;;;;11.18;5.18;;;;;;;8.13;55.20;101845.69;4802171;29;120127;-73
2022/05/02 03:07:52;;;;;;;7.72;5.47;;;;;;;8.08;55.52;101837.16;4797077;29;122634;-73
2022/05/02 03:10:20;;;;;;;11.05;4.95;;;;;;;8.00;54.73;101828.22;4797637;29;119672;-73
2022/05/02 03:12:46;;;;;;;8.43;5.03;;;;;;;7.92;55.36;101822.06;4782456;29;122770;-73
2022/05/02 03:15:11;;;;;;;7.78;5.28;;;;;;;7.94;56.12;101821.66;4796455;29;119460;-73
2022/05/02 03:17:37;;;;;;;9.13;5.90;;;;;;;7.96;55.50;101825.53;4797215;29;119360;-73
2022/05/02 03:20:04;;;;;;;10.65;5.93;;;;;;;7.82;55.27;101806.56;4809836;29;120031;-73
2022/05/02 03:22:30;;;;;;;9.48;6.43;;;;;;;7.96;55.92;101825.53;4813393;29;120231;-73
2022/05/02 03:24:56;;;;;;;8.70;5.80;;;;;;;7.95;55.79;101823.19;4814813;29;121597;-73
2022/05/02 03:27:21;;;;;;;10.82;6.35;;;;;;;7.98;56.73;101830.59;4805655;29;122790;-73
2022/05/02 03:29:47;;;;;;;10.55;6.00;;;;;;;7.95;55.86;101823.97;4799087;29;119654;-73
2022/05/02 03:32:12;;;;;;;7.50;5.90;;;;;;;7.93;55.03;101820.88;4800687;29;119492;-72
2022/05/02 03:34:38;;;;;;;11.43;6.65;;;;;;;7.90;55.28;101824.41;4795771;29;119707;-72
2022/05/02 03:37:04;;;;;;;10.27;6.43;;;;;;;7.87;55.41;101830.69;4765719;29;122264;-72
2022/05/02 03:39:30;;;;;;;11.00;6.70;;;;;;;7.86;56.71;101825.63;4781711;29;122990;-72
2022/05/02 03:41:55;;;;;;;11.95;6.60;;;;;;;7.81;56.51;101821.38;4797542;29;119748;-72
2022/05/02 03:44:21;;;;;;;12.20;6.30;;;;;;;7.84;55.81;101823.31;4796881;29;120090;-72
2022/05/02 03:46:46;;;;;;;14.32;6.38;;;;;;;7.82;56.06;101828.41;4796593;29;122767;-73
2022/05/02 03:49:12;;;;;;;11.63;6.93;;;;;;;7.76;55.63;101821.78;4797681;29;119745;-72
2022/05/02 03:51:37;;;;;;;11.07;6.70;;;;;;;7.79;55.66;101829.19;4785426;29;119723;-72
2022/05/02 03:54:03;;;;;;;11.77;6.82;;;;;;;7.76;56.11;101830.00;4817517;29;120055;-72
2022/05/02 03:56:29;;;;;;;11.80;7.05;;;;;;;7.75;56.27;101836.63;4803583;29;121672;-73
2022/05/02 03:58:55;;;;;;;11.70;7.03;;;;;;;7.70;55.94;101832.38;4796680;29;120904;-73
2022/05/02 04:01:20;;;;;;;11.02;6.82;;;;;;;7.65;56.57;101819.16;4781634;29;121022;-73
2022/05/02 04:03:48;;;;;;;11.85;6.95;;;;;;;7.68;56.83;101828.50;4800170;29;119183;-73
2022/05/02 04:06:15;;;;;;;12.68;6.68;;;;;;;7.66;56.34;101828.91;4796063;29;123116;-73
2022/05/02 04:08:40;;;;;;;11.07;7.10;;;;;;;7.64;55.76;101823.06;4795427;29;119645;-73
2022/05/02 04:11:06;;;;;;;13.93;7.35;;;;;;;7.63;56.15;101823.47;4811753;29;119444;-73
2022/05/02 04:13:35;;;;;;;9.82;6.82;;;;;;;7.56;56.00;101823.50;4799798;29;122601;-73
2022/05/02 04:16:00;;;;;;;11.15;6.72;;;;;;;7.63;56.39;101828.94;4781579;29;120674;-73
2022/05/02 04:18:26;;;;;;;9.95;6.55;;;;;;;7.60;56.33;101824.28;4794562;29;119793;-72
2022/05/02 04:20:52;;;;;;;9.93;6.82;;;;;;;7.57;56.16;101823.13;4765807;29;119341;-72
2022/05/02 04:23:17;;;;;;;9.00;7.13;;;;;;;7.63;56.67;101828.94;4790557;29;121494;-72
2022/05/02 04:25:43;;;;;;;11.45;6.97;;;;;;;7.60;56.06;101832.47;4804011;29;121966;-72
2022/05/02 04:28:10;;;;;;;9.63;6.70;;;;;;;7.61;57.03;101834.81;4795995;29;119443;-72
2022/05/02 04:30:37;;;;;;;10.02;7.10;;;;;;;7.67;57.48;101832.41;4797863;29;119351;-72
2022/05/02 04:33:03;;;;;;;11.57;7.30;;;;;;;7.73;57.51;101836.25;4779013;29;122309;-72
2022/05/02 04:35:28;;;;;;;14.65;7.82;;;;;;;7.76;58.02;101827.25;4799800;29;119704;-72
2022/05/02 04:37:54;;;;;;;9.95;7.10;;;;;;;7.82;57.95;101836.59;4778782;29;121856;-73
2022/05/02 04:40:19;;;;;;;12.98;6.82;;;;;;;7.91;58.19;101830.66;4796678;29;119939;-73
2022/05/02 04:42:46;;;;;;;12.40;7.97;;;;;;;8.04;58.39;101839.13;4795904;29;121203;-73
2022/05/02 04:45:14;;;;;;;12.38;7.25;;;;;;;8.12;57.95;101835.16;4795782;29;119818;-73
2022/05/02 04:47:40;;;;;;;13.43;7.93;;;;;;;8.14;58.05;101827.31;4780496;29;119971;-73
2022/05/02 04:50:09;;;;;;;15.40;8.85;;;;;;;8.24;58.70;101826.44;4796512;29;121103;-73
2022/05/02 04:52:35;;;;;;;11.65;8.70;;;;;;;8.28;59.17;101817.03;4786473;29;121843;-73
2022/05/02 04:55:00;;;;;;;16.17;9.70;;;;;;;8.38;59.42;101826.31;4805215;29;119443;-73
2022/05/02 04:57:26;;;;;;;11.85;8.20;;;;;;;8.52;58.88;101833.63;4782797;29;121534;-73
2022/05/02 04:59:51;;;;;;;14.27;8.45;;;;;;;8.58;59.13;101830.00;4787698;29;119541;-73
2022/05/02 05:02:17;;;;;;;11.95;8.15;;;;;;;8.58;58.49;101813.59;4776405;29;121612;-73
2022/05/02 05:04:45;;;;;;;11.15;7.25;;;;;;;8.69;57.83;101818.94;4794400;29;119744;-73
2022/05/02 05:07:11;;;;;;;13.75;8.10;;;;;;;8.83;57.40;101828.94;4796163;29;119397;-73
2022/05/02 05:09:36;;;;;;;11.70;7.60;;;;;;;8.90;58.56;101824.13;4797466;29;119291;-73
2022/05/02 05:12:08;;;;;;;11.85;8.30;;;;;;;9.01;58.82;101821.28;4810778;29;119831;-73
2022/05/02 05:18:00;;;;;;;14.82;8.70;;;;;;;9.26;59.45;101828.38;4797329;29;121874;-73
2022/05/02 05:20:58;;;;;;;14.48;8.77;;;;;;;9.38;59.80;101830.53;4802592;29;121947;-73
2022/05/02 05:23:51;;;;;;;13.27;8.68;;;;;;;9.49;60.18;101825.69;4809193;29;119930;-73
2022/05/02 05:26:27;;;;;;;13.55;8.60;;;;;;;9.59;60.25;101822.00;4782221;29;122877;-73
2022/05/02 05:28:53;;;;;;;13.40;9.38;;;;;;;9.74;60.36;101817.06;4800077;29;120121;-73
2022/05/02 05:31:32;;;;;;;13.15;9.05;;;;;;;9.85;60.91;101818.41;4797705;29;122371;-73
2022/05/02 05:34:19;;;;;;;13.35;9.98;;;;;;;9.97;60.66;101811.59;4798013;29;122850;-73
2022/05/02 05:37:32;;;;;;;13.80;9.40;;;;;;;10.08;60.83;101820.38;4779714;29;119576;-73
2022/05/02 05:40:10;;;;;;;13.55;9.90;;;;;;;10.21;61.35;101817.06;4788462;29;119616;-73
2022/05/02 05:43:03;;;;;;;13.48;9.75;;;;;;;10.37;61.33;101814.38;4798267;29;120089;-73
2022/05/02 05:45:37;;;;;;;13.43;9.45;;;;;;;10.55;61.78;101811.31;4800561;29;120908;-72
2022/05/02 05:48:43;;;;;;;11.50;8.82;;;;;;;10.71;61.78;101814.91;4797703;29;122647;-73
2022/05/02 05:51:18;;;;;;;14.52;9.07;;;;;;;10.87;62.39;101811.41;4797913;29;119658;-73
2022/05/02 05:54:05;;;;;;;14.25;9.38;;;;;;;11.01;62.44;101811.13;4799502;29;119762;-72
2022/05/02 05:57:03;;;;;;;11.30;8.15;;;;;;;11.16;62.20;101808.84;4793878;29;119972;-73
2022/05/02 05:59:38;;;;;;;12.77;8.27;;;;;;;11.33;62.49;101809.63;4792038;29;119949;-72
2022/05/02 06:02:17;;;;;;;14.27;8.07;;;;;;;11.44;61.62;101815.66;4785259;29;122468;-73
2022/05/02 06:04:47;;;;;;;11.88;8.15;;;;;;;11.59;61.87;101810.56;4782524;29;123549;-72
2022/05/02 06:07:12;;;;;;;9.73;7.90;;;;;;;11.65;62.23;101809.66;4799176;29;119796;-73
2022/05/02 06:09:43;;;;;;;9.55;6.95;;;;;;;11.78;62.18;101806.19;4802115;29;119612;-73
2022/05/02 06:12:15;;;;;;;14.38;7.78;;;;;;;11.94;62.05;101814.44;4797810;29;119938;-73
2022/05/02 06:20:18;;;;;;;9.57;6.15;;;;;;;12.18;60.99;101806.75;4798428;29;120019;-73
2022/05/02 06:22:45;;;;;;;8.88;6.03;;;;;;;12.31;61.11;101817.81;4802713;29;120261;-73
2022/05/02 06:25:13;;;;;;;5.53;4.80;;;;;;;12.34;60.36;101808.69;4807004;29;123203;-73
2022/05/02 06:27:43;;;;;;;8.50;4.90;;;;;;;12.41;60.49;101819.50;4813410;29;119939;-73
2022/05/02 06:30:09;;;;;;;6.38;4.25;;;;;;;12.45;59.69;101812.69;4785376;29;121029;-73
2022/05/02 06:32:37;;;;;;;3.78;2.70;;;;;;;12.52;56.90;101811.72;4801698;29;119762;-73
2022/05/02 06:35:05;;;;;;;4.35;2.70;;;;;;;12.58;56.04;101818.25;4785215;29;120103;-73
2022/05/02 06:37:57;;;;;;;3.25;2.55;;;;;;;12.65;56.12;101812.53;4802041;29;120392;-73
2022/05/02 06:40:39;;;;;;;3.58;2.60;;;;;;;12.71;56.04;101801.72;4778537;29;120012;-73
2022/05/02 06:43:24;;;;;;;4.88;2.30;;;;;;;12.84;54.16;101808.03;4799149;29;119753;-72
2022/05/02 06:46:02;;;;;;;7.18;2.88;;;;;;;12.91;54.96;101811.34;4797609;29;119921;-73
2022/05/02 06:48:55;;;;;;;3.83;2.20;;;;;;;13.00;53.30;101813.44;4807372;29;119761;-73
2022/05/02 06:51:39;;;;;;;6.85;3.30;;;;;;;13.03;52.41;101807.09;4792740;29;121300;-73
2022/05/02 06:54:20;;;;;;;7.63;3.10;;;;;;;13.07;51.98;101812.47;4786016;29;122812;-73
2022/05/02 06:56:55;;;;;;;6.15;3.35;;;;;;;13.14;53.94;101815.00;4788483;29;121685;-73
2022/05/02 06:59:50;;;;;;;3.30;2.42;;;;;;;13.20;53.74;101818.78;4794872;29;119850;-73
2022/05/02 07:02:32;;;;;;;4.65;2.83;;;;;;;13.26;53.35;101819.78;4774870;29;119570;-73
2022/05/02 07:05:05;;;;;;;4.53;2.30;;;;;;;13.29;52.83;101810.63;4774043;29;120846;-73
2022/05/02 07:07:53;;;;;;;5.00;2.28;;;;;;;13.36;53.03;101812.41;4791765;29;121165;-73
2022/05/02 07:10:29;;;;;;;3.70;1.75;;;;;;;13.35;49.02;101808.09;4795378;29;120392;-73
2022/05/02 07:13:17;;;;;;;4.43;2.30;;;;;;;13.38;49.07;101802.47;4807809;29;119870;-73
2022/05/02 07:15:45;;;;;;;4.82;3.00;;;;;;;13.45;51.12;101813.25;4788061;29;121045;-73
2022/05/02 07:18:24;;;;;;;5.13;2.78;;;;;;;13.49;48.77;101811.19;4800420;29;120132;-73
2022/05/02 07:21:27;;;;;;;3.45;2.25;;;;;;;13.55;49.24;101805.09;4789411;29;122688;-73
2022/05/02 07:24:09;;;;;;;5.63;3.20;;;;;;;13.58;50.37;101810.50;4794713;29;120219;-72
2022/05/02 07:26:38;;;;;;;4.88;2.60;;;;;;;13.58;50.07;101813.25;4802772;29;122197;-73
2022/05/02 07:29:04;;;;;;;3.90;2.58;;;;;;;13.60;50.86;101797.03;4794164;29;120117;-73
2022/05/02 07:31:34;;;;;;;5.72;3.38;;;;;;;13.71;51.60;101802.19;4778236;29;120140;-73
2022/05/02 07:34:02;;;;;;;6.75;2.00;;;;;;;13.74;49.92;101804.09;4776543;29;120434;-73
2022/05/02 07:36:31;;;;;;;2.72;1.83;;;;;;;13.79;49.95;101804.28;4795406;29;121820;-73
2022/05/02 07:38:58;;;;;;;3.70;1.60;;;;;;;13.87;50.31;101812.31;4792763;29;119803;-73
2022/05/02 07:41:25;;;;;;;2.97;1.10;;;;;;;13.94;49.12;101804.56;4794995;29;119492;-72
2022/05/02 07:43:57;;;;;;;3.05;1.55;;;;;;;13.95;48.46;101792.31;4803779;29;119451;-73
2022/05/02 07:46:27;;;;;;;2.13;1.40;;;;;;;14.14;48.70;101810.56;4794956;29;119486;-73
2022/05/02 07:48:57;;;;;;;3.83;1.30;;;;;;;14.29;46.36;101796.25;4793783;29;119824;-73
2022/05/02 07:51:23;;;;;;;1.88;1.00;;;;;;;14.41;48.37;101792.66;4780046;29;120998;-73
2022/05/02 07:53:51;;;;;;;3.03;1.40;;;;;;;14.62;46.97;101800.19;4798703;29;119580;-72
2022/05/02 07:56:25;;;;;;;2.30;1.05;;;;;;;14.75;46.91;101794.59;4795624;29;122891;-72
2022/05/02 07:58:53;;;;;;;3.78;1.30;;;;;;;14.92;45.76;101801.44;4792986;29;119573;-72
2022/05/02 08:01:20;;;;;;;3.22;1.27;;;;;;;15.03;46.38;101787.97;4780019;29;122172;-73
2022/05/02 08:03:47;;;;;;;3.08;1.10;;;;;;;15.16;46.09;101785.13;4784173;29;122685;-72
2022/05/02 08:06:35;;;;;;;2.75;1.20;;;;;;;15.35;46.31;101786.69;4795088;29;120207;-73
2022/05/02 08:09:34;;;;;;;6.28;1.42;;;;;;;15.52;47.08;101786.44;4795116;29;120044;-73
2022/05/02 08:12:16;;;;;;;7.90;1.77;;;;;;;15.64;46.84;101785.59;4776726;29;119545;-73
2022/05/02 08:14:54;;;;;;;2.42;1.40;;;;;;;15.78;45.07;101776.66;4794375;29;120106;-73
2022/05/02 08:17:57;;;;;;;4.07;0.82;;;;;;;15.89;43.91;101784.53;4776888;29;123168;-73
2022/05/02 08:20:31;;;;;;;1.95;0.90;;;;;;;15.98;43.27;101789.28;4779357;29;120520;-73
2022/05/02 08:29:56;;;;;;;3.65;1.00;;;;;;;16.10;40.57;101780.06;4753159;29;119902;-73
2022/05/02 08:32:47;;;;;;;1.83;0.90;;;;;;;16.16;40.97;101781.00;4793918;29;120209;-73
2022/05/02 08:35:17;;;;;;;1.00;0.70;;;;;;;16.24;42.15;101776.66;4791988;29;120664;-73
2022/05/02 08:38:01;;;;;;;1.63;0.98;;;;;;;16.31;41.74;101778.34;4794901;29;119613;-73
2022/05/02 08:40:27;;;;;;;0.68;0.68;;;;;;;16.34;39.21;101780.97;4794617;29;122689;-73
2022/05/02 08:43:38;;;;;;;2.80;0.98;;;;;;;16.38;39.27;101770.50;4772677;29;119740;-73
2022/05/02 08:46:17;;;;;;;1.00;0.50;;;;;;;16.43;39.02;101771.88;4789906;29;120725;-73
2022/05/02 08:52:13;;;;;;;1.05;0.50;;;;;;;16.45;38.00;101769.41;4796779;29;119737;-73
2022/05/02 08:54:41;;;;;;;1.35;0.70;;;;;;;16.47;39.13;101764.94;4777508;29;123199;-73
2022/05/02 08:57:29;;;;;;;1.70;0.57;;;;;;;16.51;39.68;101773.84;4797225;29;119924;-73
2022/05/02 09:00:09;;;;;;;1.30;0.75;;;;;;;16.53;38.70;101774.16;4808416;29;121997;-73
2022/05/02 09:02:56;;;;;;;0.82;0.50;;;;;;;16.53;37.08;101757.53;4794405;29;119841;-73
2022/05/02 09:05:40;;;;;;;1.20;0.40;;;;;;;16.58;34.29;101767.25;4797725;29;119694;-73
2022/05/02 09:08:05;;;;;;;0.40;0.40;;;;;;;16.56;34.21;101767.72;4807843;29;120265;-73
2022/05/02 09:10:55;;;;;;;1.10;0.70;;;;;;;16.52;34.33;101761.53;4797964;29;119961;-73
2022/05/02 09:14:01;;;;;;;1.23;0.82;;;;;;;16.52;36.05;101771.84;4805314;29;119717;-73
2022/05/02 09:16:52;;;;;;;0.63;0.50;;;;;;;16.53;36.48;101760.31;4798225;29;119865;-73
2022/05/02 09:19:20;;;;;;;1.67;0.40;;;;;;;16.55;35.93;101757.81;4812715;29;119632;-73
2022/05/02 09:22:25;;;;;;;1.00;0.50;;;;;;;16.58;35.11;101756.16;4794637;29;122427;-73
2022/05/02 09:25:03;;;;;;;2.22;0.80;;;;;;;16.53;34.36;101743.69;4779294;29;122685;-73
2022/05/02 09:28:18;;;;;;;1.33;1.08;;;;;;;16.61;35.83;101760.75;4801862;29;119554;-73
2022/05/02 09:31:08;;;;;;;1.17;0.70;;;;;;;16.60;35.97;101758.47;4796371;29;121902;-73
2022/05/02 09:33:51;;;;;;;3.83;0.70;;;;;;;16.45;34.89;101728.63;4781779;29;122770;-73
2022/05/02 09:36:33;;;;;;;1.03;0.63;;;;;;;16.54;37.37;101744.44;4798244;29;119791;-73
2022/05/02 09:39:22;;;;;;;1.98;0.70;;;;;;;16.57;37.14;101740.78;4795687;29;122134;-73
2022/05/02 09:41:57;;;;;;;2.28;0.60;;;;;;;16.63;35.63;101752.75;4802501;29;120663;-73
2022/05/02 09:50:43;;;;;;;2.05;0.70;;;;;;;16.66;35.59;101743.53;4793408;29;119809;-73
2022/05/02 09:53:17;;;;;;;2.05;0.60;;;;;;;16.65;35.42;101743.97;4798274;29;119848;-73
2022/05/02 09:59:02;;;;;;;1.40;0.60;;;;;;;16.55;33.66;101730.13;4793435;29;120442;-73
2022/05/02 10:01:31;;;;;;;1.27;0.65;;;;;;;16.52;33.55;101720.00;4794957;29;120238;-73
2022/05/02 10:04:23;;;;;;;1.02;0.50;;;;;;;16.57;36.27;101733.22;4798322;29;122701;-74
2022/05/02 10:06:51;;;;;;;1.77;0.80;;;;;;;16.60;36.94;101725.22;4786191;29;119817;-74
2022/05/02 10:09:46;;;;;;;4.10;0.80;;;;;;;16.63;37.14;101724.28;4782471;29;123072;-73
2022/05/02 10:12:39;;;;;;;1.45;0.80;;;;;;;16.66;35.27;101723.34;4752708;29;120494;-73
2022/05/02 10:15:28;;;;;;;2.53;0.70;;;;;;;16.66;36.70;101718.59;4780106;29;122496;-74
2022/05/02 10:18:18;;;;;;;3.38;0.90;;;;;;;16.67;36.72;101720.13;4796740;29;122948;-73
2022/05/02 10:20:54;;;;;;;2.00;1.00;;;;;;;16.68;35.03;101715.38;4798560;29;119658;-73
2022/05/02 10:23:25;;;;;;;2.28;1.15;;;;;;;16.70;37.21;101707.34;4793394;29;120062;-73
2022/05/02 10:26:06;;;;;;;2.45;1.08;;;;;;;16.73;35.23;101717.50;4794174;29;122566;-73
2022/05/02 10:28:53;;;;;;;1.65;0.90;;;;;;;16.74;35.74;101714.25;4781585;29;119901;-74
2022/05/02 10:31:21;;;;;;;3.45;1.15;;;;;;;16.74;36.93;101705.16;4789502;29;119954;-73
2022/05/02 10:33:53;;;;;;;2.00;1.15;;;;;;;16.71;35.52;101690.25;4776944;29;120680;-73
2022/05/02 10:36:22;;;;;;;3.42;0.95;;;;;;;16.77;37.06;101704.22;4774368;29;119751;-73
2022/05/02 10:38:53;;;;;;;2.60;1.10;;;;;;;16.74;37.89;101697.63;4781532;29;120230;-73
2022/05/02 10:41:28;;;;;;;1.73;0.90;;;;;;;16.76;36.46;101705.47;4789990;29;119884;-73
2022/05/02 10:44:02;;;;;;;4.43;0.95;;;;;;;16.77;35.43;101696.69;4798226;29;119737;-74
2022/05/02 10:46:31;;;;;;;1.50;0.85;;;;;;;16.77;37.32;101701.47;4797378;29;119952;-74
2022/05/02 10:49:18;;;;;;;2.08;1.10;;;;;;;16.82;37.40;101695.31;4780765;29;120460;-73
2022/05/02 10:51:53;;;;;;;3.30;0.93;;;;;;;16.84;36.98;101690.06;4782722;29;120714;-73
2022/05/02 10:54:35;;;;;;;1.25;1.00;;;;;;;16.84;36.45;101685.28;4789455;29;120281;-73
2022/05/02 10:57:14;;;;;;;2.80;1.10;;;;;;;16.80;34.68;101675.59;4781831;29;119832;-73
2022/05/02 10:59:44;;;;;;;3.28;1.40;;;;;;;16.89;37.09;101681.09;4792656;29;120273;-74
2022/05/02 11:02:29;;;;;;;1.70;1.08;;;;;;;16.93;36.13;101676.13;4801784;29;120502;-73
2022/05/02 11:05:00;;;;;;;;;;;;;;;16.92;36.16;101679.38;4793714;29;119957;-73
2022/05/02 11:07:34;;;;;;;2.58;1.00;;;;;;;16.90;36.50;101670.78;4796639;29;122853;-73
2022/05/02 11:10:07;;;;;;;4.03;1.30;;;;;;;16.96;37.08;101666.13;4781718;29;119571;-73
2022/05/02 11:12:36;;;;;;;2.35;1.20;;;;;;;16.97;36.54;101660.09;4806236;29;119835;-73
2022/05/02 11:15:05;;;;;;;1.95;0.85;;;;;;;17.01;37.90;101657.91;4800458;29;119997;-73
2022/05/02 11:17:56;;;;;;;3.47;0.90;;;;;;;17.05;36.71;101658.53;4796784;29;120217;-73
2022/05/02 11:21:03;;;;;;;2.80;1.08;;;;;;;17.06;35.39;101668.38;4781318;29;122017;-74
2022/05/02 11:23:59;;;;;;;1.27;0.80;;;;;;;17.05;35.29;101661.31;4770554;29;119660;-73
2022/05/02 11:26:50;;;;;;;0.93;0.73;;;;;;;17.05;37.15;101655.00;4795389;29;121419;-73
2022/05/02 11:29:37;;;;;;;3.28;1.00;;;;;;;17.06;37.74;101657.28;4798207;29;120388;-73
2022/05/02 11:32:09;;;;;;;2.75;0.90;;;;;;;17.08;37.03;101656.81;4779688;29;119868;-73
2022/05/02 11:34:54;;;;;;;1.42;0.70;;;;;;;17.10;37.64;101659.88;4796557;29;119917;-73
2022/05/02 11:37:54;;;;;;;2.30;0.70;;;;;;;17.12;38.20;101660.94;4780512;29;122848;-73
2022/05/02 11:40:27;;;;;;;2.63;0.80;;;;;;;17.10;38.85;101646.78;4793093;29;119911;-73
2022/05/02 11:42:53;;;;;;;3.27;0.97;;;;;;;17.16;39.42;101649.66;4797197;29;120619;-73
2022/05/02 11:45:30;;;;;;;1.52;0.90;;;;;;;17.08;38.46;101621.53;4780497;29;120148;-73
2022/05/02 11:48:10;;;;;;;0.80;0.68;;;;;;;17.31;38.08;101644.19;4798091;29;119364;-73
2022/05/02 11:50:44;;;;;;;2.03;0.95;;;;;;;17.31;38.71;101639.41;4786575;29;122710;-74
2022/05/02 11:53:13;;;;;;;2.42;0.80;;;;;;;17.43;38.69;101643.16;4791952;29;120356;-73
2022/05/02 11:55:40;;;;;;;3.35;1.10;;;;;;;17.47;38.26;101646.50;4778277;29;122646;-72
2022/05/02 11:58:14;;;;;;;2.38;1.05;;;;;;;17.53;38.32;101641.09;4794201;29;120078;-73
2022/05/02 12:00:41;;;;;;;2.60;0.85;;;;;;;17.55;38.09;101635.81;4774863;29;119998;-73
2022/05/02 12:03:15;;;;;;;3.00;0.90;;;;;;;17.51;37.98;101619.38;4809215;29;120190;-73
2022/05/02 12:05:43;;;;;;;4.07;0.93;;;;;;;17.53;38.19;101633.53;4790775;29;120145;-72
2022/05/02 12:08:20;;;;;;;3.03;0.80;;;;;;;17.59;38.13;101636.41;4760182;29;121338;-73
2022/05/02 12:10:47;;;;;;;0.60;0.52;;;;;;;17.60;37.96;101633.16;4791431;29;119951;-73
2022/05/02 12:13:18;;;;;;;1.00;0.70;;;;;;;17.60;36.76;101633.16;4794180;29;120018;-72
2022/05/02 12:15:53;;;;;;;1.05;0.60;;;;;;;17.59;36.87;101628.06;4793366;29;120793;-73
2022/05/02 12:18:18;;;;;;;1.17;0.70;;;;;;;17.54;36.55;101623.97;4761868;29;123519;-73